Time,TemperatureF,DewpointF,PressureIn,WindDirection,WindDirectionDegrees,WindSpeedMPH,WindSpeedGustMPH,Humidity,HourlyPrecipIn,Conditions,Clouds,dailyrainin,SoftwareType,DateUTC
2013-06-18 00:16:00,61.2,60.6,29.79,West,270,0.0,-999.0,98,-99.99,,,0.00,Acu-Link.com,2013-06-18 04:16:00,
2013-06-18 00:47:00,60.4,59.8,29.78,WNW,292,1.7,-999.0,98,-99.99,,,0.00,Acu-Link.com,2013-06-18 04:47:00,
2013-06-18 01:06:00,60.4,59.8,29.78,NW,315,0.0,-999.0,98,-99.99,,,0.00,Acu-Link.com,2013-06-18 05:06:00,
2013-06-18 01:37:00,60.4,59.8,29.77,NNE,22,1.1,-999.0,98,-99.99,,,0.00,Acu-Link.com,2013-06-18 05:37:00,
2013-06-18 10:23:00,74.5,67.9,29.76,SE,135,2.2,-999.0,80,-99.99,,,0.00,Acu-Link.com,2013-06-18 14:23:00,
2013-06-18 10:38:00,75.2,68.6,29.76,ESE,112,2.2,-999.0,80,-99.99,,,0.00,Acu-Link.com,2013-06-18 14:38:00,
2013-06-18 10:53:00,75.4,68.8,29.75,North,0,2.2,-999.0,80,-99.99,,,0.00,Acu-Link.com,2013-06-18 14:53:00,
2013-06-18 11:08:00,76.3,69.7,29.76,NNW,337,2.2,-999.0,80,-99.99,,,0.00,Acu-Link.com,2013-06-18 15:08:00,
2013-06-18 11:24:00,75.6,69.7,29.75,West,270,1.7,-999.0,82,-99.99,,,0.00,Acu-Link.com,2013-06-18 15:24:00,
2013-06-18 11:39:00,77.2,70.5,29.74,West,270,1.7,-999.0,80,-99.99,,,0.00,Acu-Link.com,2013-06-18 15:39:00,
2013-06-18 11:58:00,76.5,70.6,29.73,NNE,22,1.1,-999.0,82,-99.99,,,0.00,Acu-Link.com,2013-06-18 15:58:00,
2013-06-18 12:13:00,76.5,70.2,29.74,SSW,202,0.0,-999.0,81,-99.99,,,0.00,Acu-Link.com,2013-06-18 16:13:00,
2013-06-18 12:34:00,77.2,70.2,29.74,NNW,337,0.0,-999.0,79,-99.99,,,0.00,Acu-Link.com,2013-06-18 16:34:00,
2013-06-18 12:49:00,77.9,70.1,29.73,West,270,0.0,-999.0,77,-99.99,,,0.00,Acu-Link.com,2013-06-18 16:49:00,
2013-06-18 13:04:00,79.7,70.3,29.73,SE,135,1.1,-999.0,73,-99.99,,,0.00,Acu-Link.com,2013-06-18 17:04:00,
2013-06-18 13:20:00,79.5,69.7,29.72,SE,135,1.7,-999.0,72,-99.99,,,0.00,Acu-Link.com,2013-06-18 17:20:00,
2013-06-18 13:35:00,79.5,68.4,29.73,WNW,292,0.0,-999.0,69,-99.99,,,0.00,Acu-Link.com,2013-06-18 17:35:00,
2013-06-18 13:50:00,79.3,68.2,29.71,SSE,157,1.1,-999.0,69,-99.99,,,0.00,Acu-Link.com,2013-06-18 17:50:00,
2013-06-18 14:06:00,79.7,68.2,29.72,NNE,22,3.2,-999.0,68,-99.99,,,0.00,Acu-Link.com,2013-06-18 18:06:00,
2013-06-18 14:21:00,79.0,67.9,29.72,NW,315,2.2,-999.0,69,-99.99,,,0.00,Acu-Link.com,2013-06-18 18:21:00,
2013-06-18 14:36:00,79.7,67.8,29.71,North,0,4.7,-999.0,67,-99.99,,,0.00,Acu-Link.com,2013-06-18 18:36:00,
2013-06-18 14:52:00,79.2,67.3,29.72,NNE,22,3.7,-999.0,67,-99.99,,,0.00,Acu-Link.com,2013-06-18 18:52:00,
2013-06-18 15:11:00,79.2,67.7,29.71,East,90,1.7,-999.0,68,-99.99,,,0.00,Acu-Link.com,2013-06-18 19:11:00,
2013-06-18 15:26:00,79.5,67.6,29.70,ESE,112,2.2,-999.0,67,-99.99,,,0.00,Acu-Link.com,2013-06-18 19:26:00,
2013-06-18 15:42:00,79.2,68.1,29.70,NE,45,0.0,-999.0,69,-99.99,,,0.00,Acu-Link.com,2013-06-18 19:42:00,
2013-06-18 15:57:00,78.6,67.6,29.70,NE,45,4.2,-999.0,69,-99.99,,,0.00,Acu-Link.com,2013-06-18 19:57:00,
2013-06-18 16:12:00,78.4,67.8,29.69,NNE,22,3.2,-999.0,70,-99.99,,,0.00,Acu-Link.com,2013-06-18 20:12:00,
2013-06-18 16:27:00,78.6,68.4,29.69,ESE,112,4.7,-999.0,71,-99.99,,,0.00,Acu-Link.com,2013-06-18 20:27:00,
2013-06-18 16:47:00,79.0,68.8,29.71,SW,225,0.0,-999.0,71,-99.99,,,0.00,Acu-Link.com,2013-06-18 20:47:00,
2013-06-18 17:02:00,77.9,68.5,29.72,NE,45,3.2,-999.0,73,-99.99,,,0.00,Acu-Link.com,2013-06-18 21:02:00,
2013-06-18 17:17:00,77.4,67.2,29.70,North,0,1.1,-999.0,71,-99.99,,,0.00,Acu-Link.com,2013-06-18 21:17:00,
2013-06-18 17:37:00,77.2,67.5,29.71,East,90,4.2,-999.0,72,-99.99,,,0.00,Acu-Link.com,2013-06-18 21:37:00,
2013-06-18 17:56:00,77.5,67.3,29.70,North,0,3.7,-999.0,71,-99.99,,,0.00,Acu-Link.com,2013-06-18 21:56:00,
2013-06-18 18:12:00,76.3,67.0,29.72,North,0,3.7,-999.0,73,-99.99,,,0.00,Acu-Link.com,2013-06-18 22:12:00,
2013-06-18 18:28:00,76.3,66.6,29.72,NE,45,1.7,-999.0,72,-99.99,,,0.00,Acu-Link.com,2013-06-18 22:28:00,
2013-06-18 18:46:00,75.6,65.9,29.72,ENE,67,4.7,-999.0,72,-99.99,,,0.00,Acu-Link.com,2013-06-18 22:46:00,
2013-06-18 19:01:00,76.3,65.4,29.72,NNE,22,3.7,-999.0,69,-99.99,,,0.00,Acu-Link.com,2013-06-18 23:01:00,
2013-06-18 19:20:00,76.3,65.8,29.73,ENE,67,7.3,-999.0,70,-99.99,,,0.00,Acu-Link.com,2013-06-18 23:20:00,
2013-06-18 19:50:00,71.4,63.1,29.76,NNE,22,2.2,-999.0,75,-99.99,,,0.00,Acu-Link.com,2013-06-18 23:50:00,
2013-06-18 20:10:00,69.6,61.7,29.77,NNE,22,6.3,-999.0,76,-99.99,,,0.00,Acu-Link.com,2013-06-19 00:10:00,
2013-06-18 20:45:00,68.0,60.5,29.78,East,90,3.2,-999.0,77,-99.99,,,0.00,Acu-Link.com,2013-06-19 00:45:00,
2013-06-18 21:49:00,67.5,60.4,29.80,West,270,2.7,-999.0,78,-99.99,,,0.00,Acu-Link.com,2013-06-19 01:49:00,